createdAt,value
2022-08-20T00:01:11.402Z,6.40
2022-08-20T00:03:44.757Z,6.65
2022-08-20T00:06:22.557Z,6.07
2022-08-20T00:08:50.974Z,5.45
2022-08-20T00:11:27.268Z,5.57
2022-08-20T00:14:00.293Z,5.25
2022-08-20T00:16:32.945Z,5.60
2022-08-20T00:19:01.533Z,6.13
2022-08-20T00:21:28.482Z,6.43
2022-08-20T00:23:59.244Z,6.50
2022-08-20T00:26:26.992Z,6.35
2022-08-20T00:28:54.580Z,6.00
2022-08-20T00:31:23.925Z,6.10
2022-08-20T00:33:51.546Z,6.20
2022-08-20T00:36:19.619Z,5.47
2022-08-20T00:38:47.918Z,5.70
2022-08-20T00:41:21.815Z,6.05
2022-08-20T00:44:05.653Z,6.25
2022-08-20T00:46:33.418Z,5.72
2022-08-20T00:49:03.027Z,5.57
2022-08-20T00:51:41.066Z,5.30
2022-08-20T00:54:15.518Z,6.10
2022-08-20T00:56:47.353Z,5.90
2022-08-20T00:59:24.340Z,5.82
2022-08-20T01:01:55.012Z,5.72
2022-08-20T01:04:33.695Z,5.38
2022-08-20T01:07:01.668Z,5.63
2022-08-20T01:09:49.999Z,5.85
2022-08-20T01:12:17.267Z,5.70
2022-08-20T01:14:46.819Z,5.28
2022-08-20T01:17:19.101Z,5.63
2022-08-20T01:19:53.497Z,6.47
2022-08-20T01:23:00.177Z,5.53
2022-08-20T01:26:14.296Z,5.70
2022-08-20T01:29:04.376Z,5.68
2022-08-20T01:31:38.354Z,5.18
2022-08-20T01:34:09.720Z,5.95
2022-08-20T01:36:51.928Z,6.55
2022-08-20T01:39:27.648Z,6.78
2022-08-20T01:42:31.197Z,5.53
2022-08-20T01:44:58.228Z,5.60
2022-08-20T01:47:31.664Z,5.72
2022-08-20T01:50:18.420Z,6.00
2022-08-20T01:53:18.958Z,5.70
2022-08-20T01:55:45.956Z,6.18
2022-08-20T01:58:13.105Z,5.95
2022-08-20T02:00:40.082Z,6.32
2022-08-20T02:03:08.528Z,6.22
2022-08-20T02:05:36.267Z,5.82
2022-08-20T02:08:04.443Z,5.95
2022-08-20T02:10:31.947Z,5.93
2022-08-20T02:13:01.095Z,5.75
2022-08-20T02:15:34.571Z,5.85
2022-08-20T02:18:12.094Z,6.13
2022-08-20T02:20:40.168Z,5.50
2022-08-20T02:23:08.469Z,5.80
2022-08-20T02:25:40.423Z,6.15
2022-08-20T02:28:12.190Z,6.18
2022-08-20T02:30:47.028Z,5.85
2022-08-20T02:33:17.284Z,5.80
2022-08-20T02:35:48.272Z,5.60
2022-08-20T02:38:16.466Z,5.82
2022-08-20T02:40:45.306Z,5.85
2022-08-20T02:43:12.721Z,6.10
2022-08-20T02:45:43.995Z,5.90
2022-08-20T02:48:21.085Z,5.72
2022-08-20T02:50:53.526Z,5.38
2022-08-20T02:53:22.371Z,6.18
2022-08-20T02:55:49.444Z,6.38
2022-08-20T02:58:17.489Z,6.00
2022-08-20T03:00:45.629Z,6.55
2022-08-20T03:03:13.054Z,6.45
2022-08-20T03:05:43.260Z,6.38
2022-08-20T03:08:13.082Z,5.88
2022-08-20T03:10:43.123Z,6.25
2022-08-20T03:13:13.798Z,6.18
2022-08-20T03:15:54.223Z,5.97
2022-08-20T03:18:29.992Z,6.20
2022-08-20T03:20:57.304Z,6.63
2022-08-20T03:23:24.306Z,6.32
2022-08-20T03:25:51.247Z,6.68
2022-08-20T03:28:19.222Z,6.43
2022-08-20T03:30:46.885Z,7.28
2022-08-20T03:33:13.817Z,6.53
2022-08-20T03:35:40.790Z,5.90
2022-08-20T03:38:13.100Z,7.07
2022-08-20T03:40:40.630Z,6.43
2022-08-20T03:43:08.900Z,6.93
2022-08-20T03:45:40.123Z,6.88
2022-08-20T03:48:10.341Z,6.63
2022-08-20T03:50:39.536Z,7.03
2022-08-20T03:53:06.475Z,6.70
2022-08-20T03:55:33.829Z,7.22
2022-08-20T03:58:04.168Z,6.30
2022-08-20T04:00:37.998Z,7.53
2022-08-20T04:03:06.546Z,7.05
2022-08-20T04:05:34.407Z,6.47
2022-08-20T04:08:03.552Z,7.15
2022-08-20T04:10:32.012Z,7.68
2022-08-20T04:12:59.321Z,6.97
2022-08-20T04:15:26.819Z,7.20
2022-08-20T04:17:54.272Z,7.03
2022-08-20T04:20:26.021Z,8.02
2022-08-20T04:22:58.735Z,6.78
2022-08-20T04:25:35.806Z,7.05
2022-08-20T04:28:06.574Z,7.13
2022-08-20T04:30:34.285Z,6.90
2022-08-20T04:33:01.795Z,6.85
2022-08-20T04:35:30.448Z,7.22
2022-08-20T04:38:04.463Z,7.40
2022-08-20T04:40:49.905Z,7.22
2022-08-20T04:43:17.189Z,7.55
2022-08-20T04:45:45.301Z,6.63
2022-08-20T04:48:15.202Z,6.57
2022-08-20T04:50:46.758Z,6.40
2022-08-20T04:53:18.613Z,7.63
2022-08-20T04:55:48.482Z,7.00
2022-08-20T04:58:23.047Z,7.28
2022-08-20T05:00:54.310Z,7.45
2022-08-20T05:03:22.474Z,7.00
2022-08-20T05:05:50.452Z,7.47
2022-08-20T05:08:20.460Z,6.97
2022-08-20T05:10:47.801Z,7.07
2022-08-20T05:13:15.181Z,7.05
2022-08-20T05:15:44.619Z,7.20
2022-08-20T05:18:12.594Z,7.35
2022-08-20T05:20:41.993Z,8.02
2022-08-20T05:23:13.395Z,9.20
2022-08-20T05:25:42.108Z,8.25
2022-08-20T05:28:17.898Z,7.30
2022-08-20T05:30:47.684Z,8.75
2022-08-20T05:33:17.872Z,8.40
2022-08-20T05:35:45.282Z,8.80
2022-08-20T05:38:14.885Z,8.07
2022-08-20T05:40:42.816Z,7.30
2022-08-20T05:43:10.870Z,9.45
2022-08-20T05:45:40.658Z,9.25
2022-08-20T05:48:16.306Z,8.43
2022-08-20T05:50:46.955Z,7.45
2022-08-20T05:53:13.886Z,6.85
2022-08-20T05:55:40.924Z,7.00
2022-08-20T05:58:15.707Z,7.53
2022-08-20T06:00:42.680Z,7.50
2022-08-20T06:03:28.004Z,7.68
2022-08-20T06:05:55.006Z,7.53
2022-08-20T06:08:21.929Z,7.40
2022-08-20T06:10:48.847Z,7.95
2022-08-20T06:13:15.782Z,7.22
2022-08-20T06:15:42.781Z,7.50
2022-08-20T06:18:27.382Z,7.38
2022-08-20T06:20:55.082Z,7.57
2022-08-20T06:23:23.309Z,7.47
2022-08-20T06:25:50.486Z,7.40
2022-08-20T06:28:21.856Z,8.68
2022-08-20T06:30:48.834Z,7.70
2022-08-20T06:33:15.914Z,7.60
2022-08-20T06:35:44.748Z,7.60
2022-08-20T06:38:12.819Z,7.35
2022-08-20T06:40:39.899Z,7.97
2022-08-20T06:43:09.103Z,7.70
2022-08-20T06:45:36.358Z,7.78
2022-08-20T06:48:11.168Z,7.68
2022-08-20T06:50:47.207Z,7.35
2022-08-20T06:53:20.655Z,7.10
2022-08-20T06:55:53.616Z,7.80
2022-08-20T06:58:36.812Z,8.15
2022-08-20T07:01:11.653Z,7.55
2022-08-20T07:03:42.307Z,7.65
2022-08-20T07:06:24.072Z,8.23
2022-08-20T07:08:50.988Z,8.13
2022-08-20T07:11:17.906Z,8.10
2022-08-20T07:13:45.449Z,8.50
2022-08-20T07:16:12.544Z,7.78
2022-08-20T07:18:39.467Z,7.50
2022-08-20T07:21:06.613Z,7.75
2022-08-20T07:23:33.631Z,7.43
2022-08-20T07:26:00.642Z,7.97
2022-08-20T07:28:32.476Z,7.72
2022-08-20T07:31:20.448Z,8.40
2022-08-20T07:33:50.228Z,7.82
2022-08-20T07:36:17.924Z,8.25
2022-08-20T07:38:49.789Z,8.18
2022-08-20T07:41:17.148Z,7.80
2022-08-20T07:43:48.401Z,8.18
2022-08-20T07:46:21.717Z,8.18
2022-08-20T07:48:50.696Z,8.55
2022-08-20T07:51:22.722Z,8.63
2022-08-20T07:53:52.971Z,8.25
2022-08-20T07:56:24.225Z,8.05
2022-08-20T07:58:59.711Z,7.85
2022-08-20T08:01:30.589Z,8.70
2022-08-20T08:04:00.120Z,8.23
2022-08-20T08:06:31.111Z,8.10
2022-08-20T08:09:06.702Z,8.75
2022-08-20T08:11:38.212Z,8.25
2022-08-20T08:14:11.389Z,8.00
2022-08-20T08:16:39.265Z,8.02
2022-08-20T08:19:12.167Z,8.93
2022-08-20T08:21:39.717Z,7.75
2022-08-20T08:24:06.795Z,7.65
2022-08-20T08:26:36.403Z,7.47
2022-08-20T08:29:07.510Z,7.75
2022-08-20T08:31:34.890Z,8.85
2022-08-20T08:34:05.055Z,7.30
2022-08-20T08:36:32.129Z,7.53
2022-08-20T08:39:00.074Z,7.45
2022-08-20T08:41:32.320Z,6.90
2022-08-20T08:44:12.675Z,7.72
2022-08-20T08:46:44.208Z,7.28
2022-08-20T08:49:38.209Z,7.32
2022-08-20T08:52:28.305Z,7.68
2022-08-20T08:54:58.738Z,7.50
2022-08-20T08:57:26.323Z,7.75
2022-08-20T09:00:14.932Z,7.00
2022-08-20T09:03:03.500Z,7.32
2022-08-20T09:05:45.342Z,7.03
2022-08-20T09:08:17.310Z,7.10
2022-08-20T09:10:45.060Z,7.10
2022-08-20T09:13:12.866Z,7.40
2022-08-20T09:15:39.797Z,7.50
2022-08-20T09:18:06.925Z,7.05
2022-08-20T09:20:34.521Z,6.72
2022-08-20T09:23:01.488Z,7.13
2022-08-20T09:25:28.479Z,7.40
2022-08-20T09:27:55.436Z,7.80
2022-08-20T09:30:22.520Z,6.88
2022-08-20T09:32:54.126Z,6.70
2022-08-20T09:35:21.142Z,6.53
2022-08-20T09:37:50.892Z,7.10
2022-08-20T09:40:21.321Z,7.43
2022-08-20T09:42:49.466Z,6.72
2022-08-20T09:45:17.920Z,7.03
2022-08-20T09:47:54.822Z,6.75
2022-08-20T09:50:24.303Z,6.75
2022-08-20T09:52:54.349Z,6.22
2022-08-20T09:55:36.972Z,6.40
2022-08-20T09:58:18.092Z,6.60
2022-08-20T10:00:45.387Z,7.20
2022-08-20T10:03:12.314Z,6.68
2022-08-20T10:05:39.442Z,6.85
2022-08-20T10:08:08.812Z,7.30
2022-08-20T10:10:36.552Z,6.97
2022-08-20T10:13:03.855Z,6.93
2022-08-20T10:15:31.549Z,7.57
2022-08-20T10:17:58.854Z,7.65
2022-08-20T10:20:32.771Z,6.20
2022-08-20T10:23:37.576Z,6.70
2022-08-20T10:26:04.531Z,6.45
2022-08-20T10:28:31.506Z,6.50
2022-08-20T10:30:58.479Z,6.75
2022-08-20T10:33:25.451Z,6.05
2022-08-20T10:35:54.767Z,7.03
2022-08-20T10:38:26.947Z,6.53
2022-08-20T10:40:53.918Z,6.43
2022-08-20T10:43:20.907Z,5.72
2022-08-20T10:45:47.909Z,6.72
2022-08-20T10:48:18.290Z,5.88
2022-08-20T10:50:49.112Z,5.63
2022-08-20T10:53:16.855Z,5.60
2022-08-20T10:55:44.514Z,5.30
2022-08-20T10:58:13.157Z,5.60
2022-08-20T11:00:41.665Z,5.68
2022-08-20T11:03:08.668Z,5.97
2022-08-20T11:05:35.698Z,5.70
2022-08-20T11:08:05.142Z,5.45
2022-08-20T11:10:34.902Z,5.10
2022-08-20T11:13:05.535Z,5.35
2022-08-20T11:15:42.698Z,5.40
2022-08-20T11:18:10.829Z,5.68
2022-08-20T11:20:37.817Z,5.30
2022-08-20T11:23:05.033Z,5.35
2022-08-20T11:25:32.288Z,5.55
2022-08-20T11:27:59.792Z,5.03
2022-08-20T11:30:33.551Z,5.65
2022-08-20T11:33:02.120Z,5.78
2022-08-20T11:35:49.079Z,5.78
2022-08-20T11:38:18.226Z,5.70
2022-08-20T11:40:46.964Z,5.32
2022-08-20T11:43:17.262Z,5.40
2022-08-20T11:45:56.019Z,5.38
2022-08-20T11:48:23.141Z,6.03
2022-08-20T11:50:50.498Z,5.72
2022-08-20T11:53:17.657Z,6.13
2022-08-20T11:55:45.016Z,6.07
2022-08-20T11:58:12.713Z,6.00
2022-08-20T12:00:40.096Z,5.40
2022-08-20T12:03:08.972Z,6.03
2022-08-20T12:05:43.422Z,5.75
2022-08-20T12:08:26.783Z,6.10
2022-08-20T12:11:00.420Z,6.00
2022-08-20T12:13:47.469Z,5.45
2022-08-20T12:16:18.199Z,5.75
2022-08-20T12:18:46.877Z,6.55
2022-08-20T12:21:14.390Z,5.80
2022-08-20T12:23:41.391Z,5.50
2022-08-20T12:26:09.177Z,5.43
2022-08-20T12:28:36.207Z,5.10
2022-08-20T12:31:04.040Z,5.82
2022-08-20T12:33:31.044Z,5.47
2022-08-20T12:35:58.335Z,5.68
2022-08-20T12:38:25.364Z,5.40
2022-08-20T12:40:52.418Z,5.40
2022-08-20T12:43:24.833Z,6.07
2022-08-20T12:45:52.186Z,5.53
2022-08-20T12:48:20.898Z,5.40
2022-08-20T12:50:50.325Z,5.18
2022-08-20T12:53:17.504Z,5.65
2022-08-20T12:55:44.993Z,5.13
2022-08-20T12:58:11.986Z,5.78
2022-08-20T13:00:44.394Z,5.78
2022-08-20T13:03:17.718Z,5.70
2022-08-20T13:05:44.646Z,5.50
2022-08-20T13:08:12.750Z,5.47
2022-08-20T13:10:44.560Z,5.03
2022-08-20T13:13:17.690Z,5.22
2022-08-20T13:15:47.398Z,5.85
2022-08-20T13:18:14.329Z,5.00
2022-08-20T13:20:41.293Z,5.00
2022-08-20T13:23:08.245Z,5.25
2022-08-20T13:25:35.256Z,5.13
2022-08-20T13:28:04.688Z,5.45
2022-08-20T13:30:33.934Z,5.50
2022-08-20T13:33:01.102Z,5.80
2022-08-20T13:35:28.422Z,6.03
2022-08-20T13:37:55.344Z,6.03
2022-08-20T13:40:22.608Z,5.60
2022-08-20T13:42:49.731Z,5.85
2022-08-20T13:45:16.684Z,5.90
2022-08-20T13:47:43.846Z,6.07
2022-08-20T13:50:19.537Z,5.75
2022-08-20T13:52:46.793Z,5.78
2022-08-20T13:55:20.124Z,6.03
2022-08-20T13:57:51.422Z,5.75
2022-08-20T14:00:31.887Z,6.05
2022-08-20T14:03:03.364Z,5.78
2022-08-20T14:05:31.836Z,6.22
2022-08-20T14:08:23.460Z,6.40
2022-08-20T14:10:51.864Z,6.03
2022-08-20T14:13:21.945Z,5.68
2022-08-20T14:15:48.944Z,5.70
2022-08-20T14:18:16.829Z,6.13
2022-08-20T14:20:45.692Z,6.10
2022-08-20T14:23:13.487Z,5.55
2022-08-20T14:25:41.466Z,5.65
2022-08-20T14:28:18.685Z,6.05
2022-08-20T14:30:52.816Z,6.25
2022-08-20T14:33:21.067Z,6.32
2022-08-20T14:35:47.991Z,5.68
2022-08-20T14:38:14.978Z,5.53
2022-08-20T14:40:41.936Z,5.82
2022-08-20T14:43:09.170Z,6.30
2022-08-20T14:45:36.160Z,5.88
2022-08-20T14:48:08.090Z,5.80
2022-08-20T14:50:36.182Z,5.85
2022-08-20T14:53:04.249Z,6.20
2022-08-20T14:55:37.325Z,6.20
2022-08-20T14:58:12.524Z,5.63
2022-08-20T15:00:40.219Z,6.40
2022-08-20T15:03:07.337Z,5.72
2022-08-20T15:05:39.519Z,6.05
2022-08-20T15:08:10.461Z,6.70
2022-08-20T15:10:39.211Z,6.45
2022-08-20T15:13:06.569Z,5.97
2022-08-20T15:15:33.988Z,6.07
2022-08-20T15:18:01.344Z,5.95
2022-08-20T15:20:31.767Z,6.00
2022-08-20T15:22:59.224Z,5.75
2022-08-20T15:25:36.824Z,5.85
2022-08-20T15:28:07.926Z,5.90
2022-08-20T15:30:35.155Z,6.28
2022-08-20T15:33:02.757Z,6.22
2022-08-20T15:35:30.037Z,6.50
2022-08-20T15:37:59.148Z,6.38
2022-08-20T15:40:30.677Z,6.65
2022-08-20T15:42:59.915Z,6.38
2022-08-20T15:45:27.066Z,6.40
2022-08-20T15:48:08.266Z,6.53
2022-08-20T15:51:14.843Z,6.78
2022-08-20T15:54:00.686Z,6.75
2022-08-20T15:56:55.300Z,5.93
2022-08-20T15:59:41.204Z,5.90
2022-08-20T16:02:49.470Z,6.22
2022-08-20T16:05:36.988Z,5.80
2022-08-20T16:08:30.507Z,6.35
2022-08-20T16:11:08.259Z,5.88
2022-08-20T16:13:45.712Z,6.47
2022-08-20T16:16:22.632Z,6.03
2022-08-20T16:18:53.183Z,6.40
2022-08-20T16:21:29.961Z,6.18
2022-08-20T16:23:57.872Z,6.20
2022-08-20T16:27:13.409Z,6.20
2022-08-20T16:30:01.924Z,6.07
2022-08-20T16:32:36.298Z,6.20
2022-08-20T16:35:29.049Z,6.13
2022-08-20T16:38:14.547Z,5.88
2022-08-20T16:41:14.839Z,5.95
2022-08-20T16:43:54.729Z,6.00
2022-08-20T16:46:28.692Z,6.45
2022-08-20T16:49:00.630Z,6.00
2022-08-20T16:51:49.451Z,6.10
2022-08-20T16:54:29.344Z,5.80
2022-08-20T16:57:02.738Z,5.93
2022-08-20T16:59:30.758Z,6.53
2022-08-20T17:02:10.607Z,6.15
2022-08-20T17:04:59.493Z,6.50
2022-08-20T17:07:46.036Z,6.07
2022-08-20T17:10:20.429Z,6.00
2022-08-20T17:12:59.408Z,6.28
2022-08-20T17:15:33.068Z,6.30
2022-08-20T17:18:22.466Z,6.68
2022-08-20T17:20:50.299Z,6.22
2022-08-20T17:23:20.421Z,6.32
2022-08-20T17:26:01.836Z,5.93
2022-08-20T17:28:34.997Z,6.22
2022-08-20T17:31:02.426Z,5.63
2022-08-20T17:33:39.336Z,6.20
2022-08-20T17:36:22.300Z,5.70
2022-08-20T17:38:54.379Z,6.32
2022-08-20T17:41:29.828Z,5.60
2022-08-20T17:44:04.607Z,6.57
2022-08-20T17:46:36.105Z,5.90
2022-08-20T17:49:08.479Z,5.30
2022-08-20T17:51:41.511Z,6.25
2022-08-20T17:54:28.624Z,5.93
2022-08-20T17:57:01.802Z,6.28
2022-08-20T18:00:01.210Z,6.00
2022-08-20T18:02:23.009Z,6.13
2022-08-20T18:04:52.055Z,5.85
2022-08-20T18:07:46.573Z,6.57
2022-08-20T18:10:21.132Z,6.65
2022-08-20T18:13:14.265Z,6.45
2022-08-20T18:15:54.204Z,7.32
2022-08-20T18:18:56.765Z,6.70
2022-08-20T18:21:51.429Z,6.93
2022-08-20T18:24:36.251Z,6.80
2022-08-20T18:27:11.166Z,6.53
2022-08-20T18:29:43.532Z,6.40
2022-08-20T18:32:33.267Z,5.90
2022-08-20T18:35:35.607Z,6.20
2022-08-20T18:38:24.933Z,5.60
2022-08-20T18:40:55.094Z,5.68
2022-08-20T18:43:31.487Z,6.15
2022-08-20T18:46:23.689Z,6.18
2022-08-20T18:49:02.894Z,6.78
2022-08-20T18:51:50.530Z,5.85
2022-08-20T18:54:51.314Z,6.38
2022-08-20T18:57:34.049Z,6.18
2022-08-20T19:00:16.644Z,6.38
2022-08-20T19:03:08.723Z,6.55
2022-08-20T19:05:48.492Z,5.82
2022-08-20T19:08:25.295Z,6.18
2022-08-20T19:11:38.579Z,6.60
2022-08-20T19:14:52.829Z,6.65
2022-08-20T19:17:57.501Z,6.50
2022-08-20T19:20:29.740Z,6.10
2022-08-20T19:23:06.476Z,6.07
2022-08-20T19:25:39.106Z,6.13
2022-08-20T19:28:26.301Z,5.32
2022-08-20T19:30:53.421Z,5.78
2022-08-20T19:33:32.725Z,6.65
2022-08-20T19:36:15.848Z,5.68
2022-08-20T19:38:50.056Z,5.20
2022-08-20T19:41:44.120Z,4.80
2022-08-20T19:44:11.668Z,4.38
2022-08-20T19:46:44.379Z,4.43
2022-08-20T19:49:46.985Z,4.65
2022-08-20T19:52:45.865Z,3.97
2022-08-20T19:55:30.048Z,4.38
2022-08-20T19:58:05.768Z,4.22
2022-08-20T20:00:44.247Z,5.15
2022-08-20T20:03:32.063Z,5.00
2022-08-20T20:06:17.082Z,4.68
2022-08-20T20:09:01.754Z,4.80
2022-08-20T20:11:45.581Z,4.07
2022-08-20T20:14:15.532Z,4.70
2022-08-20T20:16:43.092Z,4.20
2022-08-20T20:19:26.361Z,3.80
2022-08-20T20:22:26.709Z,4.32
2022-08-20T20:25:18.934Z,4.50
2022-08-20T20:27:52.687Z,4.25
2022-08-20T20:30:35.759Z,4.28
2022-08-20T20:33:32.473Z,4.00
2022-08-20T20:36:31.724Z,4.47
2022-08-20T20:39:04.894Z,4.00
2022-08-20T20:41:33.406Z,4.03
2022-08-20T20:44:17.730Z,3.80
2022-08-20T20:46:48.603Z,4.43
2022-08-20T20:49:22.477Z,5.47
2022-08-20T20:52:18.678Z,4.28
2022-08-20T20:54:46.899Z,4.00
2022-08-20T20:57:34.280Z,3.97
2022-08-20T21:00:11.487Z,4.10
2022-08-20T21:02:38.853Z,4.05
2022-08-20T21:05:06.431Z,4.22
2022-08-20T21:07:33.431Z,3.88
2022-08-20T21:10:00.403Z,4.43
2022-08-20T21:12:27.385Z,4.22
2022-08-20T21:14:54.392Z,4.15
2022-08-20T21:17:23.063Z,4.20
2022-08-20T21:19:51.760Z,4.18
2022-08-20T21:22:20.190Z,4.30
2022-08-20T21:24:51.294Z,4.13
2022-08-20T21:27:25.171Z,4.65
2022-08-20T21:29:52.954Z,4.30
2022-08-20T21:32:21.177Z,4.65
2022-08-20T21:34:49.741Z,4.68
2022-08-20T21:37:17.840Z,4.38
2022-08-20T21:39:45.032Z,4.78
2022-08-20T21:42:28.332Z,5.10
2022-08-20T21:44:57.856Z,4.53
2022-08-20T21:47:25.414Z,4.28
2022-08-20T21:49:53.120Z,4.45
2022-08-20T21:52:20.175Z,4.50
2022-08-20T21:54:47.194Z,4.60
2022-08-20T21:57:21.565Z,4.32
2022-08-20T21:59:49.652Z,4.53
2022-08-20T22:02:18.151Z,4.65
2022-08-20T22:04:45.234Z,5.00
2022-08-20T22:07:12.768Z,4.57
2022-08-20T22:09:39.838Z,4.97
2022-08-20T22:12:16.981Z,4.80
2022-08-20T22:14:44.252Z,4.70
2022-08-20T22:17:11.456Z,4.60
2022-08-20T22:19:38.416Z,4.78
2022-08-20T22:22:06.159Z,4.53
2022-08-20T22:24:33.096Z,4.63
2022-08-20T22:27:00.424Z,4.45
2022-08-20T22:29:27.418Z,4.05
2022-08-20T22:31:54.468Z,4.38
2022-08-20T22:34:21.829Z,4.50
2022-08-20T22:36:49.119Z,4.47
2022-08-20T22:39:16.075Z,4.50
2022-08-20T22:41:43.079Z,5.00
2022-08-20T22:44:10.250Z,4.25
2022-08-20T22:46:44.965Z,4.65
2022-08-20T22:49:17.777Z,4.47
2022-08-20T22:51:45.399Z,4.30
2022-08-20T22:54:20.018Z,4.68
2022-08-20T22:56:47.057Z,4.38
2022-08-20T22:59:14.006Z,4.43
2022-08-20T23:01:44.552Z,4.32
2022-08-20T23:04:28.198Z,4.20
2022-08-20T23:06:56.522Z,4.07
2022-08-20T23:09:24.379Z,4.60
2022-08-20T23:11:51.911Z,4.50
2022-08-20T23:14:19.115Z,4.32
2022-08-20T23:16:49.565Z,4.43
2022-08-20T23:19:22.314Z,4.72
2022-08-20T23:21:51.302Z,4.20
2022-08-20T23:24:19.336Z,4.32
2022-08-20T23:26:53.172Z,4.13
2022-08-20T23:29:22.293Z,4.57
2022-08-20T23:31:55.707Z,4.82
2022-08-20T23:34:23.564Z,4.05
2022-08-20T23:36:52.450Z,4.30
2022-08-20T23:39:20.996Z,4.07
2022-08-20T23:41:48.301Z,4.40
2022-08-20T23:44:26.372Z,4.50
2022-08-20T23:47:00.410Z,4.72
2022-08-20T23:49:28.940Z,4.72
2022-08-20T23:51:56.071Z,4.55
2022-08-20T23:54:23.092Z,4.00
2022-08-20T23:56:50.263Z,4.78
2022-08-20T23:59:17.318Z,4.60
